sensor_id;sensor_type;location;lat;lon;timestamp;P1;durP1;ratioP1;P2;durP2;ratioP2
64244;SDS011;50584;29.058;-110.966;2022-12-24T00:02:20;8.80;;;2.40;;
64244;SDS011;50584;29.058;-110.966;2022-12-24T00:04:46;12.25;;;3.35;;
64244;SDS011;50584;29.058;-110.966;2022-12-24T00:07:11;13.35;;;2.20;;
64244;SDS011;50584;29.058;-110.966;2022-12-24T00:09:37;8.52;;;2.75;;
64244;SDS011;50584;29.058;-110.966;2022-12-24T00:12:03;6.72;;;2.83;;
64244;SDS011;50584;29.058;-110.966;2022-12-24T00:14:29;14.35;;;3.15;;
64244;SDS011;50584;29.058;-110.966;2022-12-24T00:16:55;11.65;;;2.65;;
64244;SDS011;50584;29.058;-110.966;2022-12-24T00:19:20;10.70;;;2.47;;
64244;SDS011;50584;29.058;-110.966;2022-12-24T00:21:46;10.20;;;2.30;;
64244;SDS011;50584;29.058;-110.966;2022-12-24T00:24:12;5.50;;;2.10;;
64244;SDS011;50584;29.058;-110.966;2022-12-24T00:26:38;24.73;;;2.63;;
64244;SDS011;50584;29.058;-110.966;2022-12-24T00:29:03;13.45;;;3.05;;
64244;SDS011;50584;29.058;-110.966;2022-12-24T00:31:29;21.80;;;3.50;;
64244;SDS011;50584;29.058;-110.966;2022-12-24T00:33:55;15.95;;;3.70;;
64244;SDS011;50584;29.058;-110.966;2022-12-24T00:36:21;24.10;;;4.13;;
64244;SDS011;50584;29.058;-110.966;2022-12-24T00:38:47;26.25;;;4.57;;
64244;SDS011;50584;29.058;-110.966;2022-12-24T00:41:13;22.25;;;4.75;;
64244;SDS011;50584;29.058;-110.966;2022-12-24T00:43:54;13.93;;;3.40;;
64244;SDS011;50584;29.058;-110.966;2022-12-24T00:46:20;22.45;;;4.13;;
64244;SDS011;50584;29.058;-110.966;2022-12-24T00:48:46;30.63;;;3.70;;
64244;SDS011;50584;29.058;-110.966;2022-12-24T00:51:12;13.50;;;3.25;;
64244;SDS011;50584;29.058;-110.966;2022-12-24T00:53:38;8.82;;;2.55;;
64244;SDS011;50584;29.058;-110.966;2022-12-24T00:56:04;14.00;;;2.97;;
64244;SDS011;50584;29.058;-110.966;2022-12-24T00:58:31;8.68;;;2.92;;
64244;SDS011;50584;29.058;-110.966;2022-12-24T01:00:56;13.63;;;3.60;;
64244;SDS011;50584;29.058;-110.966;2022-12-24T01:03:22;11.23;;;4.13;;
64244;SDS011;50584;29.058;-110.966;2022-12-24T01:05:58;8.35;;;3.30;;
64244;SDS011;50584;29.058;-110.966;2022-12-24T01:08:24;13.60;;;3.83;;
64244;SDS011;50584;29.058;-110.966;2022-12-24T01:10:50;7.53;;;4.45;;
64244;SDS011;50584;29.058;-110.966;2022-12-24T01:13:15;15.98;;;5.10;;
64244;SDS011;50584;29.058;-110.966;2022-12-24T01:15:41;19.67;;;5.05;;
64244;SDS011;50584;29.058;-110.966;2022-12-24T01:18:07;10.90;;;4.20;;
64244;SDS011;50584;29.058;-110.966;2022-12-24T01:20:33;8.85;;;3.58;;
64244;SDS011;50584;29.058;-110.966;2022-12-24T01:22:58;8.13;;;3.20;;
64244;SDS011;50584;29.058;-110.966;2022-12-24T01:25:24;11.70;;;2.65;;
64244;SDS011;50584;29.058;-110.966;2022-12-24T01:27:50;11.20;;;3.15;;
64244;SDS011;50584;29.058;-110.966;2022-12-24T01:30:16;3.38;;;2.08;;
64244;SDS011;50584;29.058;-110.966;2022-12-24T01:32:42;6.25;;;2.10;;
64244;SDS011;50584;29.058;-110.966;2022-12-24T01:35:08;12.35;;;2.20;;
64244;SDS011;50584;29.058;-110.966;2022-12-24T01:37:34;10.77;;;2.17;;
64244;SDS011;50584;29.058;-110.966;2022-12-24T01:40:00;6.60;;;2.10;;
64244;SDS011;50584;29.058;-110.966;2022-12-24T01:42:47;11.57;;;1.95;;
64244;SDS011;50584;29.058;-110.966;2022-12-24T01:45:40;14.48;;;2.22;;
64244;SDS011;50584;29.058;-110.966;2022-12-24T01:50:41;9.75;;;1.92;;
64244;SDS011;50584;29.058;-110.966;2022-12-24T01:53:07;6.93;;;2.10;;
64244;SDS011;50584;29.058;-110.966;2022-12-24T01:55:34;11.77;;;2.58;;
64244;SDS011;50584;29.058;-110.966;2022-12-24T01:58:00;9.30;;;2.83;;
64244;SDS011;50584;29.058;-110.966;2022-12-24T02:00:27;9.63;;;2.50;;
64244;SDS011;50584;29.058;-110.966;2022-12-24T02:02:53;10.60;;;2.85;;
64244;SDS011;50584;29.058;-110.966;2022-12-24T02:08:04;7.03;;;2.35;;
64244;SDS011;50584;29.058;-110.966;2022-12-24T02:10:30;8.30;;;2.53;;
64244;SDS011;50584;29.058;-110.966;2022-12-24T02:12:56;12.13;;;2.95;;
64244;SDS011;50584;29.058;-110.966;2022-12-24T02:15:22;11.10;;;3.30;;
64244;SDS011;50584;29.058;-110.966;2022-12-24T02:18:00;7.90;;;3.63;;
64244;SDS011;50584;29.058;-110.966;2022-12-24T02:23:06;5.53;;;2.53;;
64244;SDS011;50584;29.058;-110.966;2022-12-24T02:28:01;17.00;;;3.10;;
64244;SDS011;50584;29.058;-110.966;2022-12-24T02:30:34;6.63;;;2.45;;
64244;SDS011;50584;29.058;-110.966;2022-12-24T02:33:15;9.90;;;2.60;;
64244;SDS011;50584;29.058;-110.966;2022-12-24T02:38:25;6.40;;;2.35;;
64244;SDS011;50584;29.058;-110.966;2022-12-24T02:41:00;5.18;;;2.33;;
64244;SDS011;50584;29.058;-110.966;2022-12-24T02:43:34;7.97;;;2.45;;
64244;SDS011;50584;29.058;-110.966;2022-12-24T02:46:09;8.85;;;2.30;;
64244;SDS011;50584;29.058;-110.966;2022-12-24T02:48:36;16.48;;;2.40;;
64244;SDS011;50584;29.058;-110.966;2022-12-24T02:51:04;9.20;;;2.38;;
64244;SDS011;50584;29.058;-110.966;2022-12-24T02:53:30;4.85;;;2.45;;
64244;SDS011;50584;29.058;-110.966;2022-12-24T02:56:07;5.05;;;2.17;;
64244;SDS011;50584;29.058;-110.966;2022-12-24T03:06:22;9.63;;;2.10;;
64244;SDS011;50584;29.058;-110.966;2022-12-24T03:11:18;4.95;;;2.05;;
64244;SDS011;50584;29.058;-110.966;2022-12-24T03:13:43;10.15;;;1.90;;
64244;SDS011;50584;29.058;-110.966;2022-12-24T03:16:10;5.47;;;1.80;;
64244;SDS011;50584;29.058;-110.966;2022-12-24T03:18:39;7.18;;;2.28;;
64244;SDS011;50584;29.058;-110.966;2022-12-24T03:21:15;6.60;;;2.83;;
64244;SDS011;50584;29.058;-110.966;2022-12-24T03:23:43;7.57;;;2.10;;
64244;SDS011;50584;29.058;-110.966;2022-12-24T03:26:10;6.47;;;2.17;;
64244;SDS011;50584;29.058;-110.966;2022-12-24T03:28:37;3.72;;;1.90;;
64244;SDS011;50584;29.058;-110.966;2022-12-24T03:31:04;15.48;;;2.97;;
64244;SDS011;50584;29.058;-110.966;2022-12-24T03:33:30;9.85;;;2.85;;
64244;SDS011;50584;29.058;-110.966;2022-12-24T03:35:56;12.65;;;2.85;;
64244;SDS011;50584;29.058;-110.966;2022-12-24T03:38:21;4.57;;;2.50;;
64244;SDS011;50584;29.058;-110.966;2022-12-24T03:40:47;12.60;;;3.63;;
64244;SDS011;50584;29.058;-110.966;2022-12-24T03:43:13;5.88;;;3.35;;
64244;SDS011;50584;29.058;-110.966;2022-12-24T03:45:39;9.75;;;3.55;;
64244;SDS011;50584;29.058;-110.966;2022-12-24T03:48:07;9.68;;;4.00;;
64244;SDS011;50584;29.058;-110.966;2022-12-24T03:50:33;12.63;;;3.80;;
64244;SDS011;50584;29.058;-110.966;2022-12-24T03:52:59;20.15;;;4.13;;
64244;SDS011;50584;29.058;-110.966;2022-12-24T03:55:25;22.55;;;4.93;;
64244;SDS011;50584;29.058;-110.966;2022-12-24T03:57:50;20.50;;;4.65;;
64244;SDS011;50584;29.058;-110.966;2022-12-24T04:00:16;19.20;;;5.43;;
64244;SDS011;50584;29.058;-110.966;2022-12-24T04:02:42;15.23;;;5.40;;
64244;SDS011;50584;29.058;-110.966;2022-12-24T04:05:12;22.02;;;5.78;;
64244;SDS011;50584;29.058;-110.966;2022-12-24T04:07:38;21.25;;;5.95;;
64244;SDS011;50584;29.058;-110.966;2022-12-24T04:10:04;26.83;;;7.13;;
64244;SDS011;50584;29.058;-110.966;2022-12-24T04:12:30;33.80;;;6.72;;
64244;SDS011;50584;29.058;-110.966;2022-12-24T04:14:56;15.35;;;5.40;;
64244;SDS011;50584;29.058;-110.966;2022-12-24T04:17:22;12.75;;;5.15;;
64244;SDS011;50584;29.058;-110.966;2022-12-24T04:19:47;38.20;;;8.13;;
64244;SDS011;50584;29.058;-110.966;2022-12-24T04:22:13;20.73;;;6.75;;
64244;SDS011;50584;29.058;-110.966;2022-12-24T04:24:39;27.83;;;6.90;;
64244;SDS011;50584;29.058;-110.966;2022-12-24T04:27:05;22.63;;;5.40;;
64244;SDS011;50584;29.058;-110.966;2022-12-24T04:29:30;27.38;;;6.35;;
64244;SDS011;50584;29.058;-110.966;2022-12-24T04:31:56;26.08;;;6.90;;
64244;SDS011;50584;29.058;-110.966;2022-12-24T04:34:22;21.33;;;5.47;;
64244;SDS011;50584;29.058;-110.966;2022-12-24T04:36:48;14.68;;;5.30;;
64244;SDS011;50584;29.058;-110.966;2022-12-24T04:39:13;15.00;;;4.25;;
64244;SDS011;50584;29.058;-110.966;2022-12-24T04:41:39;18.08;;;3.78;;
64244;SDS011;50584;29.058;-110.966;2022-12-24T04:44:05;17.58;;;4.85;;
64244;SDS011;50584;29.058;-110.966;2022-12-24T04:46:31;28.65;;;6.15;;
64244;SDS011;50584;29.058;-110.966;2022-12-24T04:48:57;27.45;;;6.57;;
64244;SDS011;50584;29.058;-110.966;2022-12-24T04:51:24;38.28;;;8.15;;
64244;SDS011;50584;29.058;-110.966;2022-12-24T04:53:50;47.40;;;7.88;;
64244;SDS011;50584;29.058;-110.966;2022-12-24T04:56:17;32.67;;;6.72;;
64244;SDS011;50584;29.058;-110.966;2022-12-24T04:58:43;44.53;;;7.43;;
64244;SDS011;50584;29.058;-110.966;2022-12-24T05:01:13;26.13;;;6.38;;
64244;SDS011;50584;29.058;-110.966;2022-12-24T05:03:40;39.67;;;8.18;;
64244;SDS011;50584;29.058;-110.966;2022-12-24T05:06:13;29.50;;;6.75;;
64244;SDS011;50584;29.058;-110.966;2022-12-24T05:08:39;46.58;;;6.55;;
64244;SDS011;50584;29.058;-110.966;2022-12-24T05:11:05;21.42;;;5.72;;
64244;SDS011;50584;29.058;-110.966;2022-12-24T05:13:31;23.27;;;5.28;;
64244;SDS011;50584;29.058;-110.966;2022-12-24T05:15:58;23.60;;;5.00;;
64244;SDS011;50584;29.058;-110.966;2022-12-24T05:18:23;16.40;;;4.80;;
64244;SDS011;50584;29.058;-110.966;2022-12-24T05:20:49;26.27;;;4.90;;
64244;SDS011;50584;29.058;-110.966;2022-12-24T05:23:16;14.32;;;4.57;;
64244;SDS011;50584;29.058;-110.966;2022-12-24T05:26:01;37.72;;;5.05;;
64244;SDS011;50584;29.058;-110.966;2022-12-24T05:28:45;15.15;;;3.90;;
64244;SDS011;50584;29.058;-110.966;2022-12-24T05:31:11;24.83;;;4.35;;
64244;SDS011;50584;29.058;-110.966;2022-12-24T05:33:36;17.55;;;4.20;;
64244;SDS011;50584;29.058;-110.966;2022-12-24T05:36:02;24.73;;;4.43;;
64244;SDS011;50584;29.058;-110.966;2022-12-24T05:38:28;21.27;;;5.40;;
64244;SDS011;50584;29.058;-110.966;2022-12-24T05:40:54;38.70;;;6.22;;
64244;SDS011;50584;29.058;-110.966;2022-12-24T05:43:20;35.60;;;12.55;;
64244;SDS011;50584;29.058;-110.966;2022-12-24T05:45:45;39.17;;;12.98;;
64244;SDS011;50584;29.058;-110.966;2022-12-24T05:48:11;29.55;;;9.48;;
64244;SDS011;50584;29.058;-110.966;2022-12-24T05:50:40;32.35;;;8.07;;
64244;SDS011;50584;29.058;-110.966;2022-12-24T05:53:06;19.02;;;5.78;;
64244;SDS011;50584;29.058;-110.966;2022-12-24T05:55:32;23.50;;;5.72;;
64244;SDS011;50584;29.058;-110.966;2022-12-24T05:57:58;23.05;;;5.85;;
64244;SDS011;50584;29.058;-110.966;2022-12-24T06:00:23;28.20;;;5.82;;
64244;SDS011;50584;29.058;-110.966;2022-12-24T06:02:49;20.23;;;5.72;;
64244;SDS011;50584;29.058;-110.966;2022-12-24T06:05:15;15.27;;;5.38;;
64244;SDS011;50584;29.058;-110.966;2022-12-24T06:07:41;18.17;;;5.03;;
64244;SDS011;50584;29.058;-110.966;2022-12-24T06:10:07;23.00;;;4.50;;
64244;SDS011;50584;29.058;-110.966;2022-12-24T06:12:33;25.00;;;4.90;;
64244;SDS011;50584;29.058;-110.966;2022-12-24T06:14:59;28.00;;;4.53;;
64244;SDS011;50584;29.058;-110.966;2022-12-24T06:17:24;17.15;;;3.95;;
64244;SDS011;50584;29.058;-110.966;2022-12-24T06:19:50;32.92;;;4.65;;
64244;SDS011;50584;29.058;-110.966;2022-12-24T06:22:16;29.98;;;5.70;;
64244;SDS011;50584;29.058;-110.966;2022-12-24T06:24:42;20.67;;;4.07;;
64244;SDS011;50584;29.058;-110.966;2022-12-24T06:27:07;19.40;;;3.95;;
64244;SDS011;50584;29.058;-110.966;2022-12-24T06:29:33;25.60;;;4.18;;
64244;SDS011;50584;29.058;-110.966;2022-12-24T06:31:59;24.55;;;4.10;;
64244;SDS011;50584;29.058;-110.966;2022-12-24T06:34:25;22.52;;;4.22;;
64244;SDS011;50584;29.058;-110.966;2022-12-24T06:36:51;32.45;;;4.60;;
64244;SDS011;50584;29.058;-110.966;2022-12-24T06:39:16;17.60;;;4.15;;
64244;SDS011;50584;29.058;-110.966;2022-12-24T06:41:42;19.42;;;4.50;;
64244;SDS011;50584;29.058;-110.966;2022-12-24T06:44:08;24.75;;;4.13;;
64244;SDS011;50584;29.058;-110.966;2022-12-24T06:46:34;15.68;;;4.03;;
64244;SDS011;50584;29.058;-110.966;2022-12-24T06:48:59;15.23;;;4.35;;
64244;SDS011;50584;29.058;-110.966;2022-12-24T06:51:25;15.02;;;4.80;;
64244;SDS011;50584;29.058;-110.966;2022-12-24T06:53:51;15.90;;;4.00;;
64244;SDS011;50584;29.058;-110.966;2022-12-24T06:56:17;13.80;;;3.97;;
64244;SDS011;50584;29.058;-110.966;2022-12-24T06:58:43;25.10;;;4.43;;
64244;SDS011;50584;29.058;-110.966;2022-12-24T07:01:11;12.63;;;3.85;;
64244;SDS011;50584;29.058;-110.966;2022-12-24T07:03:37;7.28;;;3.00;;
64244;SDS011;50584;29.058;-110.966;2022-12-24T07:06:03;9.68;;;3.05;;
64244;SDS011;50584;29.058;-110.966;2022-12-24T07:08:29;7.80;;;2.42;;
64244;SDS011;50584;29.058;-110.966;2022-12-24T07:10:57;9.98;;;2.60;;
64244;SDS011;50584;29.058;-110.966;2022-12-24T07:13:23;7.75;;;2.47;;
64244;SDS011;50584;29.058;-110.966;2022-12-24T07:15:56;4.63;;;2.35;;
64244;SDS011;50584;29.058;-110.966;2022-12-24T07:18:22;11.65;;;2.70;;
64244;SDS011;50584;29.058;-110.966;2022-12-24T07:20:48;6.35;;;2.28;;
64244;SDS011;50584;29.058;-110.966;2022-12-24T07:23:14;5.82;;;2.28;;
64244;SDS011;50584;29.058;-110.966;2022-12-24T07:25:42;6.00;;;2.17;;
64244;SDS011;50584;29.058;-110.966;2022-12-24T07:28:08;2.10;;;1.77;;
64244;SDS011;50584;29.058;-110.966;2022-12-24T07:30:34;8.35;;;2.08;;
64244;SDS011;50584;29.058;-110.966;2022-12-24T07:33:00;8.10;;;2.00;;
64244;SDS011;50584;29.058;-110.966;2022-12-24T07:35:26;8.48;;;2.30;;
64244;SDS011;50584;29.058;-110.966;2022-12-24T07:37:51;3.63;;;2.10;;
64244;SDS011;50584;29.058;-110.966;2022-12-24T07:40:17;4.10;;;2.05;;
64244;SDS011;50584;29.058;-110.966;2022-12-24T07:42:43;4.75;;;2.10;;
64244;SDS011;50584;29.058;-110.966;2022-12-24T07:45:09;7.15;;;2.38;;
64244;SDS011;50584;29.058;-110.966;2022-12-24T07:47:35;5.30;;;2.80;;
64244;SDS011;50584;29.058;-110.966;2022-12-24T07:50:01;5.40;;;2.50;;
64244;SDS011;50584;29.058;-110.966;2022-12-24T07:52:27;4.07;;;2.05;;
64244;SDS011;50584;29.058;-110.966;2022-12-24T07:54:53;4.47;;;2.00;;
64244;SDS011;50584;29.058;-110.966;2022-12-24T07:57:18;5.78;;;2.10;;
64244;SDS011;50584;29.058;-110.966;2022-12-24T07:59:44;8.88;;;2.00;;
64244;SDS011;50584;29.058;-110.966;2022-12-24T08:02:10;4.38;;;1.80;;
64244;SDS011;50584;29.058;-110.966;2022-12-24T08:04:36;7.68;;;1.90;;
64244;SDS011;50584;29.058;-110.966;2022-12-24T08:07:05;6.88;;;1.80;;
64244;SDS011;50584;29.058;-110.966;2022-12-24T08:09:34;5.78;;;1.92;;
64244;SDS011;50584;29.058;-110.966;2022-12-24T08:12:00;5.32;;;2.25;;
64244;SDS011;50584;29.058;-110.966;2022-12-24T08:14:29;5.10;;;2.08;;
64244;SDS011;50584;29.058;-110.966;2022-12-24T08:16:55;4.28;;;1.88;;
64244;SDS011;50584;29.058;-110.966;2022-12-24T08:19:22;7.32;;;1.90;;
64244;SDS011;50584;29.058;-110.966;2022-12-24T08:21:48;3.83;;;2.15;;
64244;SDS011;50584;29.058;-110.966;2022-12-24T08:24:13;3.33;;;2.20;;
64244;SDS011;50584;29.058;-110.966;2022-12-24T08:26:39;4.93;;;1.95;;
64244;SDS011;50584;29.058;-110.966;2022-12-24T08:29:05;7.25;;;1.73;;
64244;SDS011;50584;29.058;-110.966;2022-12-24T08:31:31;10.65;;;2.20;;
64244;SDS011;50584;29.058;-110.966;2022-12-24T08:34:04;7.43;;;1.88;;
64244;SDS011;50584;29.058;-110.966;2022-12-24T08:36:31;3.70;;;1.83;;
64244;SDS011;50584;29.058;-110.966;2022-12-24T08:38:57;1.70;;;1.60;;
64244;SDS011;50584;29.058;-110.966;2022-12-24T08:41:23;4.47;;;1.67;;
64244;SDS011;50584;29.058;-110.966;2022-12-24T08:43:49;3.50;;;1.75;;
64244;SDS011;50584;29.058;-110.966;2022-12-24T08:46:15;2.65;;;1.80;;
64244;SDS011;50584;29.058;-110.966;2022-12-24T08:48:40;4.95;;;2.00;;
64244;SDS011;50584;29.058;-110.966;2022-12-24T08:51:07;4.75;;;1.77;;
64244;SDS011;50584;29.058;-110.966;2022-12-24T08:53:33;2.83;;;1.75;;
64244;SDS011;50584;29.058;-110.966;2022-12-24T08:56:03;6.57;;;1.70;;
64244;SDS011;50584;29.058;-110.966;2022-12-24T08:58:29;6.88;;;1.80;;
64244;SDS011;50584;29.058;-110.966;2022-12-24T09:00:55;4.72;;;1.73;;
64244;SDS011;50584;29.058;-110.966;2022-12-24T09:03:20;3.80;;;2.03;;
64244;SDS011;50584;29.058;-110.966;2022-12-24T09:05:46;4.05;;;1.90;;
64244;SDS011;50584;29.058;-110.966;2022-12-24T09:08:12;6.05;;;2.53;;
64244;SDS011;50584;29.058;-110.966;2022-12-24T09:10:38;2.83;;;2.00;;
64244;SDS011;50584;29.058;-110.966;2022-12-24T09:13:04;7.72;;;2.53;;
64244;SDS011;50584;29.058;-110.966;2022-12-24T09:15:30;9.70;;;1.90;;
64244;SDS011;50584;29.058;-110.966;2022-12-24T09:17:55;12.85;;;1.92;;
64244;SDS011;50584;29.058;-110.966;2022-12-24T09:20:21;4.32;;;1.70;;
64244;SDS011;50584;29.058;-110.966;2022-12-24T09:22:47;2.20;;;1.75;;
64244;SDS011;50584;29.058;-110.966;2022-12-24T09:25:13;5.75;;;2.63;;
64244;SDS011;50584;29.058;-110.966;2022-12-24T09:27:38;10.25;;;2.85;;
64244;SDS011;50584;29.058;-110.966;2022-12-24T09:30:05;5.60;;;2.20;;
64244;SDS011;50584;29.058;-110.966;2022-12-24T09:32:31;10.48;;;1.92;;
64244;SDS011;50584;29.058;-110.966;2022-12-24T09:34:57;9.20;;;3.45;;
64244;SDS011;50584;29.058;-110.966;2022-12-24T09:37:23;12.23;;;3.03;;
64244;SDS011;50584;29.058;-110.966;2022-12-24T09:39:48;5.97;;;2.28;;
64244;SDS011;50584;29.058;-110.966;2022-12-24T09:44:57;4.88;;;2.05;;
64244;SDS011;50584;29.058;-110.966;2022-12-24T09:47:32;5.43;;;1.88;;
64244;SDS011;50584;29.058;-110.966;2022-12-24T09:50:00;3.50;;;1.80;;
64244;SDS011;50584;29.058;-110.966;2022-12-24T09:52:34;1.70;;;1.60;;
64244;SDS011;50584;29.058;-110.966;2022-12-24T09:55:06;2.45;;;1.75;;
64244;SDS011;50584;29.058;-110.966;2022-12-24T09:59:57;3.08;;;1.70;;
64244;SDS011;50584;29.058;-110.966;2022-12-24T10:02:23;2.30;;;1.75;;
64244;SDS011;50584;29.058;-110.966;2022-12-24T10:04:49;6.30;;;2.33;;
64244;SDS011;50584;29.058;-110.966;2022-12-24T10:12:19;3.55;;;1.77;;
64244;SDS011;50584;29.058;-110.966;2022-12-24T10:17:35;6.53;;;2.03;;
64244;SDS011;50584;29.058;-110.966;2022-12-24T10:22:50;2.47;;;2.05;;
64244;SDS011;50584;29.058;-110.966;2022-12-24T10:25:29;1.95;;;1.60;;
64244;SDS011;50584;29.058;-110.966;2022-12-24T10:27:59;6.95;;;1.60;;
64244;SDS011;50584;29.058;-110.966;2022-12-24T10:30:25;5.93;;;1.90;;
64244;SDS011;50584;29.058;-110.966;2022-12-24T10:32:52;2.63;;;1.98;;
64244;SDS011;50584;29.058;-110.966;2022-12-24T10:35:22;2.10;;;1.73;;
64244;SDS011;50584;29.058;-110.966;2022-12-24T10:37:50;2.05;;;1.95;;
64244;SDS011;50584;29.058;-110.966;2022-12-24T10:43:01;4.35;;;1.70;;
64244;SDS011;50584;29.058;-110.966;2022-12-24T10:45:29;3.28;;;1.60;;
64244;SDS011;50584;29.058;-110.966;2022-12-24T10:48:00;1.80;;;1.70;;
64244;SDS011;50584;29.058;-110.966;2022-12-24T10:50:35;3.97;;;1.70;;
64244;SDS011;50584;29.058;-110.966;2022-12-24T10:55:46;2.05;;;1.95;;
64244;SDS011;50584;29.058;-110.966;2022-12-24T10:58:14;2.10;;;1.75;;
64244;SDS011;50584;29.058;-110.966;2022-12-24T11:00:41;1.90;;;1.60;;
64244;SDS011;50584;29.058;-110.966;2022-12-24T11:05:42;3.20;;;1.65;;
64244;SDS011;50584;29.058;-110.966;2022-12-24T11:10:39;3.53;;;1.90;;
64244;SDS011;50584;29.058;-110.966;2022-12-24T11:13:05;7.47;;;1.60;;
64244;SDS011;50584;29.058;-110.966;2022-12-24T11:15:41;2.72;;;1.80;;
64244;SDS011;50584;29.058;-110.966;2022-12-24T11:18:12;4.05;;;1.67;;
64244;SDS011;50584;29.058;-110.966;2022-12-24T11:20:38;3.10;;;1.60;;
64244;SDS011;50584;29.058;-110.966;2022-12-24T11:23:04;5.82;;;1.90;;
64244;SDS011;50584;29.058;-110.966;2022-12-24T11:25:33;6.03;;;1.95;;
64244;SDS011;50584;29.058;-110.966;2022-12-24T11:33:21;3.33;;;3.03;;
64244;SDS011;50584;29.058;-110.966;2022-12-24T11:35:48;5.88;;;2.22;;
64244;SDS011;50584;29.058;-110.966;2022-12-24T11:38:17;2.47;;;2.00;;
64244;SDS011;50584;29.058;-110.966;2022-12-24T11:40:44;8.35;;;2.17;;
64244;SDS011;50584;29.058;-110.966;2022-12-24T11:43:14;6.53;;;1.88;;
64244;SDS011;50584;29.058;-110.966;2022-12-24T11:45:46;1.77;;;1.65;;
64244;SDS011;50584;29.058;-110.966;2022-12-24T11:48:29;7.72;;;2.08;;
64244;SDS011;50584;29.058;-110.966;2022-12-24T11:50:59;9.20;;;1.80;;
64244;SDS011;50584;29.058;-110.966;2022-12-24T11:53:27;1.60;;;1.50;;
64244;SDS011;50584;29.058;-110.966;2022-12-24T11:55:56;1.90;;;1.80;;
64244;SDS011;50584;29.058;-110.966;2022-12-24T11:58:27;1.60;;;1.50;;
64244;SDS011;50584;29.058;-110.966;2022-12-24T12:01:42;3.20;;;1.63;;
64244;SDS011;50584;29.058;-110.966;2022-12-24T12:03:44;2.67;;;1.60;;
64244;SDS011;50584;29.058;-110.966;2022-12-24T12:06:19;1.63;;;1.52;;
64244;SDS011;50584;29.058;-110.966;2022-12-24T12:08:49;5.05;;;1.73;;
64244;SDS011;50584;29.058;-110.966;2022-12-24T12:11:15;1.60;;;1.50;;
64244;SDS011;50584;29.058;-110.966;2022-12-24T12:13:42;4.10;;;1.90;;
64244;SDS011;50584;29.058;-110.966;2022-12-24T12:16:19;1.65;;;1.50;;
64244;SDS011;50584;29.058;-110.966;2022-12-24T12:19:07;5.72;;;1.80;;
64244;SDS011;50584;29.058;-110.966;2022-12-24T12:21:34;1.98;;;1.73;;
64244;SDS011;50584;29.058;-110.966;2022-12-24T12:24:04;6.28;;;2.05;;
64244;SDS011;50584;29.058;-110.966;2022-12-24T12:26:31;5.20;;;2.72;;
64244;SDS011;50584;29.058;-110.966;2022-12-24T12:31:56;4.15;;;2.10;;
64244;SDS011;50584;29.058;-110.966;2022-12-24T12:34:27;2.33;;;2.13;;
64244;SDS011;50584;29.058;-110.966;2022-12-24T12:37:00;4.20;;;1.77;;
64244;SDS011;50584;29.058;-110.966;2022-12-24T12:39:29;5.38;;;2.10;;
64244;SDS011;50584;29.058;-110.966;2022-12-24T12:47:57;2.10;;;2.00;;
64244;SDS011;50584;29.058;-110.966;2022-12-24T12:52:40;2.30;;;2.10;;
64244;SDS011;50584;29.058;-110.966;2022-12-24T12:57:53;2.25;;;2.08;;
64244;SDS011;50584;29.058;-110.966;2022-12-24T13:00:20;3.45;;;2.63;;
64244;SDS011;50584;29.058;-110.966;2022-12-24T13:02:56;2.17;;;2.08;;
64244;SDS011;50584;29.058;-110.966;2022-12-24T13:10:56;2.80;;;2.60;;
64244;SDS011;50584;29.058;-110.966;2022-12-24T13:21:04;5.00;;;2.08;;
64244;SDS011;50584;29.058;-110.966;2022-12-24T13:23:36;1.88;;;1.65;;
64244;SDS011;50584;29.058;-110.966;2022-12-24T13:26:02;2.30;;;2.10;;
64244;SDS011;50584;29.058;-110.966;2022-12-24T13:28:35;6.38;;;2.03;;
64244;SDS011;50584;29.058;-110.966;2022-12-24T13:36:05;5.20;;;2.33;;
64244;SDS011;50584;29.058;-110.966;2022-12-24T13:38:33;3.75;;;2.50;;
64244;SDS011;50584;29.058;-110.966;2022-12-24T13:49:16;16.05;;;2.40;;
64244;SDS011;50584;29.058;-110.966;2022-12-24T13:51:42;10.70;;;3.17;;
64244;SDS011;50584;29.058;-110.966;2022-12-24T13:54:08;2.80;;;2.30;;
64244;SDS011;50584;29.058;-110.966;2022-12-24T13:56:36;18.40;;;3.08;;
64244;SDS011;50584;29.058;-110.966;2022-12-24T14:01:46;6.22;;;2.67;;
64244;SDS011;50584;29.058;-110.966;2022-12-24T14:04:20;3.80;;;2.80;;
64244;SDS011;50584;29.058;-110.966;2022-12-24T14:06:48;6.20;;;2.60;;
64244;SDS011;50584;29.058;-110.966;2022-12-24T14:09:15;3.20;;;2.20;;
64244;SDS011;50584;29.058;-110.966;2022-12-24T14:14:30;5.28;;;2.90;;
64244;SDS011;50584;29.058;-110.966;2022-12-24T14:17:41;3.83;;;2.85;;
64244;SDS011;50584;29.058;-110.966;2022-12-24T14:19:43;5.60;;;2.53;;
64244;SDS011;50584;29.058;-110.966;2022-12-24T14:24:37;2.25;;;2.05;;
64244;SDS011;50584;29.058;-110.966;2022-12-24T14:29:51;15.85;;;3.30;;
64244;SDS011;50584;29.058;-110.966;2022-12-24T14:32:17;28.90;;;4.25;;
64244;SDS011;50584;29.058;-110.966;2022-12-24T14:34:43;23.90;;;5.15;;
64244;SDS011;50584;29.058;-110.966;2022-12-24T14:37:09;32.28;;;5.82;;
64244;SDS011;50584;29.058;-110.966;2022-12-24T14:39:38;109.05;;;10.82;;
64244;SDS011;50584;29.058;-110.966;2022-12-24T14:58:38;27.05;;;4.10;;
64244;SDS011;50584;29.058;-110.966;2022-12-24T15:00:41;29.20;;;3.65;;
64244;SDS011;50584;29.058;-110.966;2022-12-24T15:03:11;43.15;;;4.70;;
64244;SDS011;50584;29.058;-110.966;2022-12-24T15:05:37;21.30;;;3.58;;
64244;SDS011;50584;29.058;-110.966;2022-12-24T15:08:07;19.70;;;3.65;;
64244;SDS011;50584;29.058;-110.966;2022-12-24T15:10:34;19.45;;;3.33;;
64244;SDS011;50584;29.058;-110.966;2022-12-24T15:13:01;17.48;;;3.22;;
64244;SDS011;50584;29.058;-110.966;2022-12-24T15:15:27;8.27;;;2.60;;
64244;SDS011;50584;29.058;-110.966;2022-12-24T15:17:53;11.02;;;2.60;;
64244;SDS011;50584;29.058;-110.966;2022-12-24T15:20:20;10.25;;;2.50;;
64244;SDS011;50584;29.058;-110.966;2022-12-24T15:22:52;14.57;;;3.33;;
64244;SDS011;50584;29.058;-110.966;2022-12-24T15:25:26;14.23;;;3.67;;
64244;SDS011;50584;29.058;-110.966;2022-12-24T15:27:52;17.60;;;3.10;;
64244;SDS011;50584;29.058;-110.966;2022-12-24T15:30:19;15.35;;;3.38;;
64244;SDS011;50584;29.058;-110.966;2022-12-24T15:32:46;8.23;;;3.20;;
64244;SDS011;50584;29.058;-110.966;2022-12-24T15:37:57;5.13;;;2.60;;
64244;SDS011;50584;29.058;-110.966;2022-12-24T15:40:23;5.05;;;1.75;;
64244;SDS011;50584;29.058;-110.966;2022-12-24T15:42:49;9.85;;;2.80;;
64244;SDS011;50584;29.058;-110.966;2022-12-24T15:45:16;3.28;;;2.30;;
64244;SDS011;50584;29.058;-110.966;2022-12-24T15:47:46;17.77;;;4.95;;
64244;SDS011;50584;29.058;-110.966;2022-12-24T15:52:39;15.25;;;3.25;;
64244;SDS011;50584;29.058;-110.966;2022-12-24T15:55:22;14.98;;;3.35;;
64244;SDS011;50584;29.058;-110.966;2022-12-24T15:57:48;24.63;;;3.10;;
64244;SDS011;50584;29.058;-110.966;2022-12-24T16:00:21;12.05;;;3.38;;
64244;SDS011;50584;29.058;-110.966;2022-12-24T16:02:48;6.18;;;2.83;;
64244;SDS011;50584;29.058;-110.966;2022-12-24T16:05:30;22.42;;;3.10;;
64244;SDS011;50584;29.058;-110.966;2022-12-24T16:10:35;6.47;;;2.60;;
64244;SDS011;50584;29.058;-110.966;2022-12-24T16:13:09;4.68;;;2.50;;
64244;SDS011;50584;29.058;-110.966;2022-12-24T16:15:40;17.40;;;3.38;;
64244;SDS011;50584;29.058;-110.966;2022-12-24T16:18:13;10.88;;;2.80;;